Time;durP1;ratioP1;P1;durP2;ratioP2;P2;SDS_P1;SDS_P2;PMS_P1;PMS_P2;Temp;Humidity;BMP_temperature;BMP_pressure;BME280_temperature;BME280_humidity;BME280_pressure;Samples;Min_cycle;Max_cycle;Signal;HPM_P1;HPM_P2
2022/04/03 00:01:04;;;;;;;15.67;7.87;;;0.00;82.70;;;;;;4878715;29;20193;-87
2022/04/03 00:03:30;;;;;;;8.93;7.23;;;0.00;82.70;;;;;;4878534;29;20233;-88
2022/04/03 00:05:55;;;;;;;10.47;7.70;;;0.00;82.90;;;;;;4878656;29;20190;-88
2022/04/03 00:08:21;;;;;;;8.37;7.40;;;0.00;83.10;;;;;;4879218;29;20547;-88
2022/04/03 00:10:46;;;;;;;13.50;7.20;;;0.00;83.60;;;;;;4879830;29;20534;-88
2022/04/03 00:13:12;;;;;;;14.07;8.10;;;0.00;84.00;;;;;;4878589;29;20213;-87
2022/04/03 00:15:41;;;;;;;10.83;7.60;;;0.00;84.70;;;;;;4878639;29;20186;-87
2022/04/03 00:18:07;;;;;;;9.27;6.97;;;0.00;85.00;;;;;;4878536;29;20186;-87
2022/04/03 00:20:35;;;;;;;10.80;6.97;;;0.00;85.30;;;;;;4880011;29;20265;-87
2022/04/03 00:23:01;;;;;;;14.17;8.07;;;0.00;85.20;;;;;;4878276;29;20249;-87
2022/04/03 00:25:27;;;;;;;11.23;7.27;;;0.00;85.00;;;;;;4879891;29;20197;-87
2022/04/03 00:27:52;;;;;;;10.37;7.20;;;0.00;85.00;;;;;;4878445;29;20182;-88
2022/04/03 00:30:18;;;;;;;10.87;7.67;;;0.00;85.00;;;;;;4878339;29;20568;-88
2022/04/03 00:32:43;;;;;;;14.60;7.23;;;0.00;85.10;;;;;;4879860;29;20677;-88
2022/04/03 00:35:09;;;;;;;9.13;6.63;;;0.10;85.00;;;;;;4878356;29;20174;-87
2022/04/03 00:37:34;;;;;;;7.87;5.90;;;0.10;84.70;;;;;;4879526;29;20194;-87
2022/04/03 00:40:00;;;;;;;9.60;6.53;;;0.20;84.60;;;;;;4879601;29;20211;-87
2022/04/03 00:42:26;;;;;;;8.27;6.47;;;0.20;84.50;;;;;;4878208;29;20623;-87
2022/04/03 00:44:52;;;;;;;9.07;6.47;;;0.20;84.70;;;;;;4879708;29;20179;-87
2022/04/03 00:47:20;;;;;;;10.30;6.73;;;0.20;84.90;;;;;;4878405;29;20176;-87
2022/04/03 00:49:45;;;;;;;7.67;6.50;;;0.20;85.00;;;;;;4878321;29;20178;-87
2022/04/03 00:52:11;;;;;;;10.87;6.70;;;0.20;85.00;;;;;;4878169;29;20265;-87
2022/04/03 00:54:37;;;;;;;7.07;6.03;;;0.10;84.60;;;;;;4878184;29;20187;-87
2022/04/03 00:57:07;;;;;;;7.07;5.80;;;0.10;84.80;;;;;;4878205;29;20607;-87
2022/04/03 00:59:34;;;;;;;8.47;5.77;;;0.00;84.70;;;;;;4878133;29;20281;-87
2022/04/03 01:02:00;;;;;;;11.07;6.63;;;0.10;84.60;;;;;;4878123;29;20590;-87
2022/04/03 01:04:26;;;;;;;17.87;7.40;;;0.00;84.50;;;;;;4878115;29;20178;-87
2022/04/03 01:06:51;;;;;;;9.63;6.80;;;0.00;84.60;;;;;;4878569;29;20187;-91
2022/04/03 01:09:17;;;;;;;7.77;5.70;;;0.00;84.50;;;;;;4879204;29;20181;-87
2022/04/03 01:11:45;;;;;;;8.43;5.60;;;0.00;84.40;;;;;;4878135;29;20205;-87
2022/04/03 01:14:11;;;;;;;8.67;6.23;;;0.00;84.40;;;;;;4878126;29;20272;-86
2022/04/03 01:16:37;;;;;;;11.83;5.97;;;0.00;84.30;;;;;;4878174;29;20678;-87
2022/04/03 01:19:04;;;;;;;7.33;6.07;;;0.00;84.30;;;;;;4879153;29;20551;-87
2022/04/03 01:21:29;;;;;;;6.10;5.37;;;0.00;84.10;;;;;;4877897;29;20296;-88
2022/04/03 01:23:55;;;;;;;8.43;6.17;;;0.00;84.10;;;;;;4877922;29;20617;-87
2022/04/03 01:26:22;;;;;;;8.00;5.90;;;-0.20;84.00;;;;;;4879156;29;20174;-87
2022/04/03 01:28:48;;;;;;;12.37;6.53;;;-0.30;84.40;;;;;;4879472;29;20548;-87
2022/04/03 01:31:13;;;;;;;8.60;5.40;;;-0.30;84.80;;;;;;4877912;29;20171;-87
2022/04/03 01:33:39;;;;;;;7.00;5.60;;;-0.30;85.10;;;;;;4877866;29;20749;-87
2022/04/03 01:36:05;;;;;;;7.37;6.30;;;-0.30;85.00;;;;;;4877835;29;20277;-87
2022/04/03 01:38:30;;;;;;;6.47;5.80;;;-0.40;85.30;;;;;;4879147;29;20183;-87
2022/04/03 01:40:56;;;;;;;9.43;5.77;;;-0.40;85.60;;;;;;4877872;29;20182;-88
2022/04/03 01:43:21;;;;;;;12.83;6.30;;;-0.40;85.50;;;;;;4879891;29;20257;-88
2022/04/03 01:45:47;;;;;;;8.73;5.93;;;-0.40;85.50;;;;;;4881148;29;20177;-88
2022/04/03 01:48:13;;;;;;;8.27;6.23;;;-0.40;85.70;;;;;;4881171;29;20185;-88
2022/04/03 01:50:38;;;;;;;8.53;6.00;;;-0.40;85.90;;;;;;4882324;29;20182;-88
2022/04/03 01:53:04;;;;;;;9.07;5.50;;;-0.30;85.90;;;;;;4881003;29;20198;-87
2022/04/03 01:55:30;;;;;;;8.70;5.73;;;-0.30;85.80;;;;;;4882208;29;20181;-87
2022/04/03 01:57:55;;;;;;;9.40;6.03;;;-0.40;85.60;;;;;;4882051;29;20621;-87
2022/04/03 02:00:21;;;;;;;8.17;5.60;;;-0.40;86.00;;;;;;4882064;29;20182;-87
2022/04/03 02:02:47;;;;;;;12.27;5.20;;;-0.40;86.40;;;;;;4880772;29;20252;-87
2022/04/03 02:05:13;;;;;;;8.27;5.10;;;-0.40;86.40;;;;;;4881998;29;20185;-87
2022/04/03 02:07:39;;;;;;;11.47;5.40;;;-0.40;86.40;;;;;;4880844;29;20186;-87
2022/04/03 02:10:12;;;;;;;9.57;5.00;;;-0.50;86.20;;;;;;4881978;29;20174;-87
2022/04/03 02:12:38;;;;;;;6.37;5.10;;;-0.50;86.20;;;;;;4880539;29;20213;-87
2022/04/03 02:15:05;;;;;;;9.60;4.73;;;-0.50;86.20;;;;;;4880582;29;20276;-88
2022/04/03 02:17:31;;;;;;;7.17;5.40;;;-0.50;86.00;;;;;;4881712;29;20184;-88
2022/04/03 02:19:56;;;;;;;5.30;4.80;;;-0.40;85.90;;;;;;4880521;29;20243;-88
2022/04/03 02:22:22;;;;;;;9.10;5.20;;;-0.40;85.80;;;;;;4880327;29;20700;-87
2022/04/03 02:24:48;;;;;;;7.13;4.80;;;-0.40;85.60;;;;;;4881724;29;20185;-87
2022/04/03 02:27:13;;;;;;;5.53;4.90;;;-0.40;85.90;;;;;;4880559;29;20560;-87
2022/04/03 02:29:39;;;;;;;6.83;5.23;;;-0.40;86.10;;;;;;4880489;29;20227;-87
2022/04/03 02:32:05;;;;;;;7.67;5.53;;;-0.50;86.50;;;;;;4880309;29;20225;-87
2022/04/03 02:34:30;;;;;;;12.47;5.50;;;-0.60;86.80;;;;;;4880274;29;20687;-87
2022/04/03 02:36:56;;;;;;;8.53;5.40;;;-0.60;87.10;;;;;;4880183;29;20537;-87
2022/04/03 02:39:22;;;;;;;6.57;4.87;;;-0.60;87.00;;;;;;4880292;29;20211;-87
2022/04/03 02:41:47;;;;;;;5.57;4.60;;;-0.70;87.10;;;;;;4879781;29;20261;-88
2022/04/03 02:44:13;;;;;;;7.27;4.60;;;-0.70;87.40;;;;;;4880261;29;20190;-87
2022/04/03 02:46:39;;;;;;;11.17;5.03;;;-0.70;87.50;;;;;;4881288;29;20179;-87
2022/04/03 02:49:05;;;;;;;10.57;4.67;;;-0.70;87.20;;;;;;4881265;29;20268;-87
2022/04/03 02:51:31;;;;;;;7.17;4.97;;;-0.60;87.30;;;;;;4879992;29;20209;-87
2022/04/03 02:53:56;;;;;;;7.43;4.87;;;-0.60;87.40;;;;;;4880708;29;20181;-87
2022/04/03 02:56:22;;;;;;;8.00;5.33;;;-0.50;87.50;;;;;;4879618;29;20185;-87
2022/04/03 02:58:48;;;;;;;9.57;5.37;;;-0.50;87.60;;;;;;4879859;29;20188;-87
2022/04/03 03:01:14;;;;;;;7.83;5.30;;;-0.50;87.50;;;;;;4879799;29;20216;-87
2022/04/03 03:03:39;;;;;;;7.00;4.80;;;-0.40;87.40;;;;;;4879715;29;20249;-87
2022/04/03 03:06:05;;;;;;;7.07;5.23;;;-0.30;87.30;;;;;;4881175;29;20187;-87
2022/04/03 03:08:30;;;;;;;7.23;4.73;;;-0.30;87.20;;;;;;4879659;29;20193;-87
2022/04/03 03:10:56;;;;;;;10.13;5.13;;;-0.30;87.00;;;;;;4879876;29;20699;-87
2022/04/03 03:13:21;;;;;;;11.43;5.27;;;-0.20;86.90;;;;;;4879604;29;20216;-87
2022/04/03 03:15:47;;;;;;;10.90;5.33;;;-0.20;86.80;;;;;;4879570;29;20182;-87
2022/04/03 03:18:13;;;;;;;6.43;4.83;;;-0.30;86.80;;;;;;4879391;29;20278;-87
2022/04/03 03:20:38;;;;;;;7.50;4.67;;;-0.30;86.80;;;;;;4879583;29;20194;-87
2022/04/03 03:23:04;;;;;;;6.57;4.90;;;-0.30;86.80;;;;;;4879417;29;20216;-87
2022/04/03 03:25:30;;;;;;;5.60;4.90;;;-0.30;86.80;;;;;;4879592;29;20645;-87
2022/04/03 03:27:55;;;;;;;7.83;4.77;;;-0.30;86.80;;;;;;4879344;29;20664;-88
2022/04/03 03:30:21;;;;;;;7.77;4.60;;;-0.30;86.80;;;;;;4879228;29;20186;-88
2022/04/03 03:32:47;;;;;;;8.27;4.50;;;-0.30;86.60;;;;;;4879335;29;20239;-88
2022/04/03 03:35:12;;;;;;;5.00;4.50;;;-0.30;86.60;;;;;;4879236;29;20226;-88
2022/04/03 03:37:38;;;;;;;8.27;5.10;;;-0.30;86.50;;;;;;4879204;29;20247;-88
2022/04/03 03:40:06;;;;;;;6.97;4.70;;;-0.40;86.40;;;;;;4879103;29;20185;-88
2022/04/03 03:42:32;;;;;;;7.90;4.73;;;-0.40;86.40;;;;;;4879004;29;20232;-87
2022/04/03 03:44:59;;;;;;;5.53;4.40;;;-0.30;86.30;;;;;;4880241;29;20564;-88
2022/04/03 03:47:25;;;;;;;6.77;4.47;;;-0.40;86.10;;;;;;4880173;29;20181;-88
2022/04/03 03:49:51;;;;;;;6.23;4.57;;;-0.30;86.10;;;;;;4879028;29;20179;-88
2022/04/03 03:52:16;;;;;;;8.27;4.67;;;-0.30;86.10;;;;;;4879989;29;20217;-88
2022/04/03 03:54:43;;;;;;;6.50;5.07;;;-0.40;86.40;;;;;;4878813;29;20182;-88
2022/04/03 03:57:09;;;;;;;7.87;5.43;;;-0.40;86.70;;;;;;4878875;29;20189;-87
2022/04/03 03:59:34;;;;;;;5.63;5.03;;;-0.40;86.70;;;;;;4878740;29;20181;-88
2022/04/03 04:02:00;;;;;;;8.03;4.70;;;-0.40;86.60;;;;;;4878646;29;20262;-88
2022/04/03 04:04:26;;;;;;;9.53;5.00;;;-0.20;86.60;;;;;;4878685;29;20590;-88
2022/04/03 04:06:52;;;;;;;8.70;5.83;;;-0.20;86.50;;;;;;4878406;29;20184;-88
2022/04/03 04:09:18;;;;;;;7.47;5.10;;;-0.30;86.70;;;;;;4878753;29;20174;-87
2022/04/03 04:11:43;;;;;;;7.87;5.43;;;-0.20;86.80;;;;;;4878635;29;20206;-87
2022/04/03 04:14:09;;;;;;;7.73;5.57;;;-0.20;86.90;;;;;;4878542;29;20668;-87
2022/04/03 04:16:35;;;;;;;9.20;6.17;;;-0.20;86.90;;;;;;4883364;29;20228;-92
2022/04/03 04:19:00;;;;;;;7.30;5.30;;;-0.10;86.90;;;;;;4878970;29;20205;-88
2022/04/03 04:21:26;;;;;;;12.40;5.43;;;-0.10;86.80;;;;;;4879666;29;20650;-87
2022/04/03 04:23:51;;;;;;;10.07;5.97;;;-0.20;86.80;;;;;;4878312;29;20225;-87
2022/04/03 04:26:17;;;;;;;9.00;5.50;;;-0.20;86.80;;;;;;4878418;29;20670;-87
2022/04/03 04:28:47;;;;;;;8.40;5.30;;;-0.20;86.80;;;;;;4878419;29;20238;-88
2022/04/03 04:31:12;;;;;;;8.33;5.43;;;-0.20;86.80;;;;;;4878695;29;20178;-88
2022/04/03 04:33:38;;;;;;;10.77;5.17;;;-0.20;86.70;;;;;;4878353;29;20193;-88
2022/04/03 04:36:06;;;;;;;10.03;5.33;;;-0.20;86.70;;;;;;4878336;29;20273;-87
2022/04/03 04:38:31;;;;;;;11.83;5.07;;;-0.20;86.70;;;;;;4878195;29;20196;-87
2022/04/03 04:40:57;;;;;;;6.77;5.63;;;-0.10;86.70;;;;;;4878369;29;20277;-87
2022/04/03 04:43:22;;;;;;;6.77;4.97;;;-0.10;86.60;;;;;;4879460;29;20245;-88
2022/04/03 04:45:48;;;;;;;9.13;5.50;;;-0.10;86.50;;;;;;4878471;29;20287;-88
2022/04/03 04:48:14;;;;;;;12.73;5.13;;;-0.10;86.50;;;;;;4878296;29;20186;-88
2022/04/03 04:50:39;;;;;;;10.07;5.10;;;-0.10;86.40;;;;;;4879449;29;20176;-88
2022/04/03 04:53:05;;;;;;;7.93;4.53;;;-0.10;86.50;;;;;;4878186;29;20695;-88
2022/04/03 04:55:31;;;;;;;9.30;5.20;;;-0.10;86.50;;;;;;4878358;29;20188;-88
2022/04/03 04:57:57;;;;;;;5.60;4.67;;;-0.10;86.50;;;;;;4879066;29;20268;-88
2022/04/03 05:00:26;;;;;;;5.70;4.73;;;-0.10;86.50;;;;;;4878224;29;20198;-88
2022/04/03 05:02:51;;;;;;;6.27;4.43;;;0.00;86.50;;;;;;4877981;29;20696;-88
2022/04/03 05:05:18;;;;;;;8.13;4.40;;;0.00;86.50;;;;;;4879341;29;20310;-88
2022/04/03 05:07:45;;;;;;;6.93;5.30;;;0.00;86.40;;;;;;4878103;29;20563;-87
2022/04/03 05:10:14;;;;;;;8.50;5.47;;;0.00;86.60;;;;;;4878165;29;20182;-88
2022/04/03 05:12:40;;;;;;;9.03;5.40;;;0.10;87.00;;;;;;4878038;29;20198;-87
2022/04/03 05:15:08;;;;;;;8.67;4.73;;;0.10;87.00;;;;;;4878129;29;20182;-87
2022/04/03 05:17:34;;;;;;;5.37;4.87;;;0.10;87.10;;;;;;4879782;29;20171;-87
2022/04/03 05:19:59;;;;;;;8.20;5.50;;;0.20;87.30;;;;;;4882809;29;20196;-87
2022/04/03 05:22:26;;;;;;;8.47;4.87;;;0.30;87.00;;;;;;4881602;29;20210;-87
2022/04/03 05:24:53;;;;;;;9.10;5.10;;;0.30;86.80;;;;;;4881667;29;20213;-87
2022/04/03 05:27:19;;;;;;;11.27;5.20;;;0.30;86.90;;;;;;4882747;29;20201;-87
2022/04/03 05:29:45;;;;;;;6.20;5.23;;;0.30;86.90;;;;;;4881541;29;20181;-87
2022/04/03 05:32:11;;;;;;;15.47;6.13;;;0.30;87.00;;;;;;4881393;29;20669;-87
2022/04/03 05:34:37;;;;;;;6.27;5.33;;;0.30;87.10;;;;;;4881375;29;20178;-87
2022/04/03 05:37:03;;;;;;;9.87;5.70;;;0.40;87.30;;;;;;4881285;29;20186;-88
2022/04/03 05:39:29;;;;;;;7.63;5.10;;;0.40;87.40;;;;;;4881412;29;20189;-88
2022/04/03 05:41:55;;;;;;;5.57;5.00;;;0.40;87.50;;;;;;4881285;29;20226;-88
2022/04/03 05:44:22;;;;;;;10.67;5.63;;;0.50;87.60;;;;;;4881333;29;20213;-87
2022/04/03 05:46:48;;;;;;;5.87;4.80;;;0.50;87.60;;;;;;4882297;29;20174;-87
2022/04/03 05:49:14;;;;;;;9.30;4.97;;;0.60;88.00;;;;;;4881040;29;20226;-87
2022/04/03 05:51:41;;;;;;;7.77;4.77;;;0.70;88.20;;;;;;4880989;29;20195;-88
2022/04/03 05:54:07;;;;;;;5.07;4.57;;;0.70;88.40;;;;;;4880936;29;20182;-87
2022/04/03 05:56:32;;;;;;;7.70;4.97;;;0.80;88.80;;;;;;4880909;29;20265;-87
2022/04/03 05:58:58;;;;;;;6.53;5.77;;;0.80;88.80;;;;;;4880966;29;20548;-88
2022/04/03 06:01:24;;;;;;;5.63;4.27;;;0.80;89.00;;;;;;4881938;29;20549;-87
2022/04/03 06:03:50;;;;;;;9.03;5.10;;;0.90;89.10;;;;;;4880797;29;20229;-87
2022/04/03 06:06:16;;;;;;;7.93;5.10;;;0.90;89.10;;;;;;4880826;29;20196;-88
2022/04/03 06:08:43;;;;;;;7.43;4.77;;;1.00;89.10;;;;;;4880838;29;20182;-88
2022/04/03 06:11:08;;;;;;;10.97;4.43;;;1.00;89.10;;;;;;4881949;29;20181;-88
2022/04/03 06:13:34;;;;;;;13.60;4.63;;;1.10;89.10;;;;;;4880546;29;20205;-88
2022/04/03 06:16:00;;;;;;;8.77;5.23;;;1.10;89.10;;;;;;4880637;29;20193;-88
2022/04/03 06:18:26;;;;;;;8.83;4.90;;;1.20;89.10;;;;;;4880672;29;20199;-88
2022/04/03 06:20:51;;;;;;;7.77;5.50;;;1.30;89.00;;;;;;4880524;29;20193;-88
2022/04/03 06:23:19;;;;;;;8.50;4.30;;;1.30;88.80;;;;;;4880303;29;20210;-87
2022/04/03 06:25:54;;;;;;;10.13;4.57;;;1.30;88.70;;;;;;4881577;29;20175;-87
2022/04/03 06:28:20;;;;;;;5.73;4.97;;;1.30;88.70;;;;;;4880251;29;20291;-87
2022/04/03 06:30:46;;;;;;;9.97;5.07;;;1.30;88.70;;;;;;4880301;29;20192;-88
2022/04/03 06:33:12;;;;;;;11.23;5.10;;;1.40;88.70;;;;;;4880522;29;20302;-88
2022/04/03 06:35:38;;;;;;;7.67;5.40;;;1.40;88.80;;;;;;4880163;29;20256;-88
2022/04/03 06:38:04;;;;;;;13.70;6.33;;;1.40;89.00;;;;;;4881459;29;20639;-88
2022/04/03 06:40:32;;;;;;;8.53;5.40;;;1.30;89.40;;;;;;4880252;29;20222;-88
2022/04/03 06:42:58;;;;;;;11.73;5.40;;;1.30;89.70;;;;;;4881136;29;20228;-88
2022/04/03 06:45:24;;;;;;;6.93;4.73;;;1.30;90.00;;;;;;4881246;29;20250;-87
2022/04/03 06:47:50;;;;;;;10.37;5.87;;;1.30;90.40;;;;;;4881230;29;20650;-87
2022/04/03 06:50:15;;;;;;;5.27;4.70;;;1.30;90.80;;;;;;4879987;29;20225;-87
2022/04/03 06:52:41;;;;;;;9.27;6.33;;;1.40;90.90;;;;;;4881269;29;20377;-88
2022/04/03 06:55:08;;;;;;;8.93;6.17;;;1.50;91.00;;;;;;4879865;29;20254;-87
2022/04/03 06:57:34;;;;;;;6.93;4.93;;;1.50;91.00;;;;;;4881054;29;20274;-87
2022/04/03 06:59:59;;;;;;;10.03;6.27;;;1.50;91.10;;;;;;4879810;29;20269;-88
2022/04/03 07:02:25;;;;;;;9.30;7.13;;;1.50;91.00;;;;;;4879638;29;20218;-87
2022/04/03 07:04:51;;;;;;;7.07;5.77;;;1.50;91.00;;;;;;4879829;29;20224;-87
2022/04/03 07:07:24;;;;;;;10.97;6.57;;;1.50;91.00;;;;;;4879696;29;20203;-88
2022/04/03 07:09:50;;;;;;;11.87;6.30;;;1.50;91.00;;;;;;4880976;29;20548;-87
2022/04/03 07:12:15;;;;;;;10.20;6.97;;;1.50;91.00;;;;;;4879523;29;20267;-87
2022/04/03 07:14:41;;;;;;;8.83;6.27;;;1.60;91.00;;;;;;4880780;29;20570;-88
2022/04/03 07:17:07;;;;;;;11.63;5.93;;;1.60;91.00;;;;;;4880713;29;20646;-88
2022/04/03 07:19:33;;;;;;;9.13;5.70;;;1.70;91.00;;;;;;4880713;29;20192;-88
2022/04/03 07:21:59;;;;;;;6.83;5.00;;;1.80;91.00;;;;;;4880557;29;20215;-88
2022/04/03 07:24:25;;;;;;;8.57;5.87;;;1.80;91.00;;;;;;4879368;29;20188;-88
2022/04/03 07:26:51;;;;;;;10.27;5.60;;;1.90;91.00;;;;;;4880548;29;20271;-87
2022/04/03 07:29:17;;;;;;;6.97;5.50;;;2.00;90.90;;;;;;4880726;29;20639;-88
2022/04/03 07:31:43;;;;;;;4.90;3.67;;;2.10;91.00;;;;;;4880469;29;20209;-88
2022/04/03 07:34:08;;;;;;;8.23;5.13;;;2.40;91.10;;;;;;4880342;29;20656;-88
2022/04/03 07:36:34;;;;;;;6.50;4.33;;;2.50;91.00;;;;;;4879119;29;20187;-88
2022/04/03 07:39:00;;;;;;;6.87;4.93;;;2.60;90.60;;;;;;4880366;29;20180;-88
2022/04/03 07:41:25;;;;;;;9.57;4.83;;;2.80;90.70;;;;;;4879479;29;20179;-87
2022/04/03 07:43:51;;;;;;;6.70;5.40;;;2.60;90.30;;;;;;4880164;29;20206;-88
2022/04/03 07:46:17;;;;;;;7.53;4.73;;;2.60;90.20;;;;;;4879030;29;20212;-88
2022/04/03 07:48:44;;;;;;;7.97;5.07;;;2.70;90.10;;;;;;4878972;29;20182;-88
2022/04/03 07:51:10;;;;;;;9.63;5.33;;;2.80;89.90;;;;;;4879230;29;20184;-88
2022/04/03 07:53:36;;;;;;;13.57;5.40;;;3.00;90.10;;;;;;4880143;29;20180;-88
2022/04/03 07:56:04;;;;;;;9.60;4.47;;;3.00;89.70;;;;;;4880172;29;20323;-88
2022/04/03 07:58:29;;;;;;;7.30;4.77;;;3.10;89.60;;;;;;4880166;29;20180;-88
2022/04/03 08:00:55;;;;;;;7.17;4.50;;;3.20;89.50;;;;;;4879932;29;20683;-88
2022/04/03 08:03:20;;;;;;;5.70;3.90;;;3.20;89.30;;;;;;4878716;29;20213;-87
2022/04/03 08:05:47;;;;;;;7.30;4.20;;;3.10;88.90;;;;;;4879785;29;20173;-88
2022/04/03 08:08:13;;;;;;;8.30;3.90;;;3.30;88.90;;;;;;4878569;29;20266;-87
2022/04/03 08:10:38;;;;;;;7.17;4.07;;;3.30;88.70;;;;;;4878645;29;20271;-87
2022/04/03 08:13:04;;;;;;;8.33;4.07;;;3.50;88.50;;;;;;4878622;29;20199;-88
2022/04/03 08:15:30;;;;;;;7.53;3.80;;;3.30;88.00;;;;;;4878501;29;20221;-87
2022/04/03 08:17:55;;;;;;;10.10;3.93;;;3.30;88.20;;;;;;4878568;29;20185;-87
2022/04/03 08:20:21;;;;;;;8.13;3.93;;;3.60;88.50;;;;;;4878462;29;20695;-87
2022/04/03 08:22:48;;;;;;;4.10;3.67;;;3.80;88.20;;;;;;4878450;29;20242;-87
2022/04/03 08:25:18;;;;;;;11.60;3.63;;;4.00;87.60;;;;;;4878388;29;20752;-88
2022/04/03 08:27:51;;;;;;;6.27;4.00;;;4.10;87.30;;;;;;4879538;29;20180;-88
2022/04/03 08:30:26;;;;;;;5.33;3.00;;;4.10;87.00;;;;;;4878413;29;20174;-87
2022/04/03 08:32:53;;;;;;;6.00;3.60;;;4.30;87.10;;;;;;4878338;29;20212;-88
2022/04/03 08:35:20;;;;;;;8.77;3.60;;;4.40;86.80;;;;;;4878422;29;20190;-87
2022/04/03 08:37:47;;;;;;;3.93;3.27;;;4.60;86.50;;;;;;4878351;29;20217;-88
2022/04/03 08:40:13;;;;;;;9.77;3.73;;;4.60;85.00;;;;;;4878240;29;20186;-88
2022/04/03 08:42:40;;;;;;;8.27;2.90;;;4.90;85.50;;;;;;4879423;29;20213;-88
2022/04/03 08:45:11;;;;;;;6.07;2.53;;;5.00;84.20;;;;;;4878312;29;20182;-88
2022/04/03 08:47:42;;;;;;;7.33;2.67;;;5.20;84.40;;;;;;4879490;29;20653;-88
2022/04/03 08:50:10;;;;;;;6.63;2.60;;;5.30;83.50;;;;;;4878358;29;20230;-88
2022/04/03 08:52:36;;;;;;;7.27;2.40;;;5.30;82.80;;;;;;4880424;29;20597;-88
2022/04/03 08:55:04;;;;;;;12.00;3.07;;;5.70;83.00;;;;;;4883248;29;20182;-88
2022/04/03 08:57:29;;;;;;;6.03;2.53;;;5.80;82.50;;;;;;4882034;29;20178;-88
2022/04/03 08:59:56;;;;;;;6.27;2.67;;;6.10;82.00;;;;;;4882052;29;20681;-88
2022/04/03 09:02:21;;;;;;;4.90;2.77;;;6.50;82.30;;;;;;4882042;29;20225;-88
2022/04/03 09:04:47;;;;;;;7.97;2.47;;;6.40;79.50;;;;;;4883418;29;20172;-89
2022/04/03 09:07:19;;;;;;;8.93;2.43;;;6.30;79.80;;;;;;4881820;29;20200;-89
2022/04/03 09:09:55;;;;;;;8.20;2.87;;;6.40;79.90;;;;;;4881807;29;20188;-89
2022/04/03 09:12:20;;;;;;;9.10;2.70;;;6.20;78.80;;;;;;4882199;29;20693;-89
2022/04/03 09:14:52;;;;;;;10.83;2.77;;;6.00;78.90;;;;;;4883153;29;20189;-89
2022/04/03 09:17:57;;;;;;;6.07;2.40;;;5.80;79.10;;;;;;4881863;29;20187;-88
2022/04/03 09:20:26;;;;;;;8.63;2.57;;;5.60;78.90;;;;;;4881164;29;20248;-88
2022/04/03 09:22:54;;;;;;;7.63;2.07;;;5.50;78.70;;;;;;4881316;29;20573;-88
2022/04/03 09:25:25;;;;;;;5.33;2.07;;;4.90;79.90;;;;;;4881791;29;20189;-88
2022/04/03 09:27:57;;;;;;;5.77;2.30;;;4.80;81.30;;;;;;4881359;29;20650;-88
2022/04/03 09:30:34;;;;;;;8.13;2.00;;;4.80;82.20;;;;;;4881447;29;20276;-88
2022/04/03 09:33:00;;;;;;;5.67;2.33;;;5.00;82.40;;;;;;4881320;29;20689;-88
2022/04/03 09:35:31;;;;;;;8.47;2.47;;;5.20;82.30;;;;;;4890716;23;20235;-89
2022/04/03 09:38:15;;;;;;;6.43;1.97;;;5.30;81.80;;;;;;4865127;29;20686;-90
2022/04/03 09:40:47;;;;;;;7.13;2.20;;;5.30;79.20;;;;;;4863610;29;20556;-90
2022/04/03 09:43:24;;;;;;;6.63;1.70;;;5.30;78.90;;;;;;4863772;29;20212;-91
2022/04/03 09:45:58;;;;;;;2.60;1.70;;;5.50;78.40;;;;;;4865341;29;20190;-91
2022/04/03 09:48:32;;;;;;;3.67;1.73;;;5.60;77.90;;;;;;4864115;29;20169;-91
2022/04/03 09:51:06;;;;;;;7.10;2.30;;;5.80;77.20;;;;;;4864007;29;20228;-90
2022/04/03 09:53:42;;;;;;;5.27;2.20;;;6.10;76.10;;;;;;4863744;29;20698;-92
2022/04/03 09:56:09;;;;;;;5.67;2.23;;;6.60;76.60;;;;;;4863702;29;20181;-90
2022/04/03 09:58:49;;;;;;;7.60;2.10;;;6.70;74.50;;;;;;4863329;29;20212;-90
2022/04/03 10:01:39;;;;;;;9.80;2.60;;;6.70;72.50;;;;;;4863492;29;20173;-89
2022/04/03 10:04:10;;;;;;;4.20;1.90;;;6.90;73.20;;;;;;4863155;29;20221;-91
2022/04/03 10:06:38;;;;;;;5.43;1.67;;;7.20;72.40;;;;;;4865026;29;20178;-91
2022/04/03 10:09:04;;;;;;;8.47;1.93;;;7.10;70.70;;;;;;4865746;29;20182;-92
2022/04/03 10:11:30;;;;;;;5.47;2.10;;;7.40;71.30;;;;;;4864352;29;20676;-91
2022/04/03 10:13:56;;;;;;;7.97;2.03;;;7.70;71.50;;;;;;4863217;29;20293;-90
2022/04/03 10:16:23;;;;;;;5.27;1.80;;;7.60;68.20;;;;;;4864912;29;20181;-87
2022/04/03 10:18:50;;;;;;;10.77;2.00;;;7.60;70.90;;;;;;4864235;29;20189;-90
2022/04/03 10:21:42;;;;;;;8.53;2.20;;;7.80;69.00;;;;;;4863332;29;20179;-91
2022/04/03 10:24:25;;;;;;;9.80;1.97;;;7.60;69.30;;;;;;4863397;29;20237;-89
2022/04/03 10:27:11;;;;;;;6.73;2.07;;;7.70;69.70;;;;;;4872756;29;20162;-93
2022/04/03 10:29:40;;;;;;;6.87;2.57;;;8.00;69.50;;;;;;4873146;29;20197;-91
2022/04/03 10:32:06;;;;;;;5.73;2.13;;;7.90;67.70;;;;;;4866004;29;20179;-91
2022/04/03 10:34:49;;;;;;;3.70;1.57;;;7.10;68.80;;;;;;4864198;29;20211;-90
2022/04/03 10:37:33;;;;;;;7.93;1.70;;;7.00;69.70;;;;;;4864966;29;20259;-92
2022/04/03 10:40:10;;;;;;;4.47;1.93;;;7.00;70.00;;;;;;4866802;29;20718;-91
2022/04/03 10:43:06;;;;;;;10.33;2.27;;;7.00;69.70;;;;;;4869224;29;20183;-91
2022/04/03 10:45:34;;;;;;;7.67;2.97;;;7.20;69.40;;;;;;4855039;29;20206;-90
2022/04/03 10:48:19;;;;;;;6.93;2.43;;;7.40;69.70;;;;;;4863539;29;20254;-91
2022/04/03 10:51:07;;;;;;;5.73;1.83;;;7.90;70.00;;;;;;4864254;29;20186;-89
2022/04/03 10:53:40;;;;;;;4.17;1.73;;;8.10;66.80;;;;;;4865716;29;20286;-89
2022/04/03 10:56:08;;;;;;;4.47;1.60;;;8.10;66.30;;;;;;4862678;29;20553;-91
2022/04/03 10:58:44;;;;;;;4.47;1.50;;;8.30;66.50;;;;;;4862591;29;20239;-89
2022/04/03 11:01:23;;;;;;;7.77;2.13;;;8.30;66.70;;;;;;4862621;29;20564;-90
2022/04/03 11:03:55;;;;;;;4.97;1.90;;;8.10;67.70;;;;;;4862195;29;20210;-89
2022/04/03 11:06:23;;;;;;;5.37;1.60;;;8.10;68.70;;;;;;4862045;29;20167;-90
2022/04/03 11:08:57;;;;;;;4.90;1.40;;;7.70;68.50;;;;;;4863144;29;20533;-90
2022/04/03 11:11:40;;;;;;;4.13;1.53;;;7.40;68.70;;;;;;4864308;29;20189;-89
2022/04/03 11:14:08;;;;;;;9.73;1.50;;;7.20;69.00;;;;;;4862898;29;20209;-89
2022/04/03 11:16:53;;;;;;;3.40;1.53;;;7.10;69.90;;;;;;4862096;29;20182;-89
2022/04/03 11:19:36;;;;;;;6.97;1.57;;;6.90;71.10;;;;;;4863838;29;20170;-91
2022/04/03 11:22:03;;;;;;;5.37;1.60;;;6.90;71.80;;;;;;4863369;29;20181;-91
2022/04/03 11:24:29;;;;;;;5.67;1.60;;;6.90;72.60;;;;;;4862324;29;20199;-89
2022/04/03 11:26:55;;;;;;;7.00;1.90;;;7.10;73.00;;;;;;4862073;29;20183;-92
2022/04/03 11:29:21;;;;;;;4.87;1.40;;;7.10;73.20;;;;;;4862063;29;20269;-90
2022/04/03 11:31:49;;;;;;;4.43;1.50;;;7.20;72.90;;;;;;4862408;29;20178;-89
2022/04/03 11:34:14;;;;;;;16.30;2.30;;;7.30;72.50;;;;;;4862938;29;20218;-89
2022/04/03 11:36:40;;;;;;;4.13;1.67;;;7.20;70.40;;;;;;4862716;29;20179;-90
2022/04/03 11:39:08;;;;;;;6.50;1.60;;;7.40;70.80;;;;;;4862957;29;20570;-90
2022/04/03 11:41:35;;;;;;;4.67;1.80;;;7.90;67.40;;;;;;4862647;29;20183;-91
2022/04/03 11:44:06;;;;;;;6.60;1.80;;;8.00;66.30;;;;;;4863247;29;20214;-90
2022/04/03 11:46:36;;;;;;;7.03;1.60;;;7.90;65.80;;;;;;4862622;29;20214;-91
2022/04/03 11:49:10;;;;;;;4.63;1.20;;;8.20;65.30;;;;;;4847849;29;20597;-90
2022/04/03 11:51:36;;;;;;;5.30;1.43;;;8.40;64.90;;;;;;4863219;29;20163;-90
2022/04/03 11:54:01;;;;;;;5.83;1.77;;;8.70;62.90;;;;;;4861940;29;20202;-90
2022/04/03 11:56:32;;;;;;;6.93;1.40;;;8.90;64.00;;;;;;4862060;29;20558;-91
2022/04/03 11:58:58;;;;;;;4.40;1.30;;;8.80;61.60;;;;;;4863478;29;20163;-90
2022/04/03 12:01:26;;;;;;;7.23;2.20;;;8.30;62.20;;;;;;4862050;29;20179;-90
2022/04/03 12:04:08;;;;;;;8.70;2.33;;;9.10;64.60;;;;;;4862639;29;20206;-90
2022/04/03 12:06:39;;;;;;;4.97;1.20;;;8.90;62.10;;;;;;4862150;29;20173;-88
2022/04/03 12:09:08;;;;;;;3.97;1.20;;;8.20;62.80;;;;;;4861298;29;20167;-89
2022/04/03 12:11:35;;;;;;;5.20;1.87;;;8.20;63.70;;;;;;4860516;29;20186;-90
2022/04/03 12:14:02;;;;;;;5.27;2.30;;;8.30;64.30;;;;;;4860539;29;20254;-90
2022/04/03 12:16:33;;;;;;;3.37;1.43;;;8.70;63.90;;;;;;4862058;29;20662;-91
2022/04/03 12:19:04;;;;;;;4.90;1.60;;;8.90;63.90;;;;;;4866890;29;20171;-90
2022/04/03 12:21:44;;;;;;;9.80;1.50;;;9.10;61.80;;;;;;4860973;29;20533;-90
2022/04/03 12:24:12;;;;;;;4.40;1.30;;;9.00;62.80;;;;;;4860615;29;20215;-91
2022/04/03 12:26:39;;;;;;;4.73;1.40;;;8.40;62.90;;;;;;4860429;29;20189;-91
2022/04/03 12:29:08;;;;;;;3.57;1.30;;;8.30;64.70;;;;;;4863728;29;20179;-91
2022/04/03 12:31:34;;;;;;;6.33;1.60;;;8.00;66.70;;;;;;4864099;29;20179;-91
2022/04/03 12:34:12;;;;;;;2.73;1.77;;;7.60;67.70;;;;;;4860748;29;20255;-91
2022/04/03 12:36:40;;;;;;;3.97;1.67;;;7.40;69.20;;;;;;4864239;29;20206;-91
2022/04/03 12:39:31;;;;;;;4.97;2.07;;;7.50;69.80;;;;;;4866208;29;20242;-91
2022/04/03 12:42:08;;;;;;;2.47;1.40;;;7.20;70.60;;;;;;4870746;29;20314;-90
2022/04/03 12:44:43;;;;;;;5.90;2.20;;;7.10;71.40;;;;;;4865077;29;20202;-92
2022/04/03 12:47:22;;;;;;;3.23;1.50;;;7.10;72.20;;;;;;4863457;29;20174;-91
2022/04/03 12:50:21;;;;;;;2.17;1.30;;;6.90;73.10;;;;;;4862649;29;20549;-91
2022/04/03 12:52:50;;;;;;;4.70;2.27;;;6.40;73.30;;;;;;4864821;29;20199;-91
2022/04/03 12:55:24;;;;;;;5.60;1.87;;;6.30;74.30;;;;;;4861998;29;20203;-90
2022/04/03 13:00:53;;;;;;;1.97;1.53;;;6.30;71.70;;;;;;4865369;29;20554;-90